sensor_id;sensor_type;location;lat;lon;timestamp;P1;durP1;ratioP1;P2;durP2;ratioP2
36253;SDS011;22291;52.250;21.228;2022-08-19T00:01:43;20.02;;;14.40;;
36253;SDS011;22291;52.250;21.228;2022-08-19T00:04:12;15.90;;;13.65;;
36253;SDS011;22291;52.250;21.228;2022-08-19T00:06:43;22.67;;;14.78;;
36253;SDS011;22291;52.250;21.228;2022-08-19T00:09:12;19.45;;;15.48;;
36253;SDS011;22291;52.250;21.228;2022-08-19T00:11:41;18.15;;;14.85;;
36253;SDS011;22291;52.250;21.228;2022-08-19T00:14:09;23.07;;;15.13;;
36253;SDS011;22291;52.250;21.228;2022-08-19T00:16:39;21.50;;;15.78;;
36253;SDS011;22291;52.250;21.228;2022-08-19T00:19:07;18.57;;;14.80;;
36253;SDS011;22291;52.250;21.228;2022-08-19T00:21:35;18.50;;;16.42;;
36253;SDS011;22291;52.250;21.228;2022-08-19T00:24:03;22.23;;;16.57;;
36253;SDS011;22291;52.250;21.228;2022-08-19T00:26:31;19.52;;;15.32;;
36253;SDS011;22291;52.250;21.228;2022-08-19T00:28:58;16.55;;;14.53;;
36253;SDS011;22291;52.250;21.228;2022-08-19T00:31:26;20.70;;;15.20;;
36253;SDS011;22291;52.250;21.228;2022-08-19T00:33:53;20.62;;;15.28;;
36253;SDS011;22291;52.250;21.228;2022-08-19T00:36:20;17.48;;;15.00;;
36253;SDS011;22291;52.250;21.228;2022-08-19T00:38:47;21.77;;;15.30;;
36253;SDS011;22291;52.250;21.228;2022-08-19T00:41:16;17.82;;;14.63;;
36253;SDS011;22291;52.250;21.228;2022-08-19T00:43:57;18.48;;;15.18;;
36253;SDS011;22291;52.250;21.228;2022-08-19T00:46:33;17.60;;;14.63;;
36253;SDS011;22291;52.250;21.228;2022-08-19T00:51:32;20.52;;;14.38;;
36253;SDS011;22291;52.250;21.228;2022-08-19T00:53:58;19.25;;;15.13;;
36253;SDS011;22291;52.250;21.228;2022-08-19T00:56:26;20.60;;;16.02;;
36253;SDS011;22291;52.250;21.228;2022-08-19T00:58:54;21.48;;;15.90;;
36253;SDS011;22291;52.250;21.228;2022-08-19T01:01:22;17.87;;;15.45;;
36253;SDS011;22291;52.250;21.228;2022-08-19T01:03:49;17.10;;;15.30;;
36253;SDS011;22291;52.250;21.228;2022-08-19T01:06:16;18.42;;;14.87;;
36253;SDS011;22291;52.250;21.228;2022-08-19T01:08:42;18.82;;;15.90;;
36253;SDS011;22291;52.250;21.228;2022-08-19T01:11:09;19.27;;;15.28;;
36253;SDS011;22291;52.250;21.228;2022-08-19T01:13:35;17.37;;;14.98;;
36253;SDS011;22291;52.250;21.228;2022-08-19T01:16:07;18.62;;;14.70;;
36253;SDS011;22291;52.250;21.228;2022-08-19T01:18:35;20.15;;;14.38;;
36253;SDS011;22291;52.250;21.228;2022-08-19T01:23:54;18.52;;;14.65;;
36253;SDS011;22291;52.250;21.228;2022-08-19T01:26:21;17.02;;;15.23;;
36253;SDS011;22291;52.250;21.228;2022-08-19T01:28:51;17.73;;;13.88;;
36253;SDS011;22291;52.250;21.228;2022-08-19T01:31:22;19.27;;;14.87;;
36253;SDS011;22291;52.250;21.228;2022-08-19T01:33:53;20.00;;;15.05;;
36253;SDS011;22291;52.250;21.228;2022-08-19T01:39:10;20.08;;;15.15;;
36253;SDS011;22291;52.250;21.228;2022-08-19T01:41:38;19.15;;;15.85;;
36253;SDS011;22291;52.250;21.228;2022-08-19T01:44:05;18.85;;;15.72;;
36253;SDS011;22291;52.250;21.228;2022-08-19T01:46:34;19.15;;;15.13;;
36253;SDS011;22291;52.250;21.228;2022-08-19T01:49:01;17.75;;;14.65;;
36253;SDS011;22291;52.250;21.228;2022-08-19T01:51:30;20.05;;;15.50;;
36253;SDS011;22291;52.250;21.228;2022-08-19T01:53:56;16.65;;;14.95;;
36253;SDS011;22291;52.250;21.228;2022-08-19T01:56:23;17.15;;;15.03;;
36253;SDS011;22291;52.250;21.228;2022-08-19T01:58:51;17.02;;;15.20;;
36253;SDS011;22291;52.250;21.228;2022-08-19T02:01:21;21.20;;;15.45;;
36253;SDS011;22291;52.250;21.228;2022-08-19T02:03:47;19.27;;;16.20;;
36253;SDS011;22291;52.250;21.228;2022-08-19T02:06:13;21.85;;;15.63;;
36253;SDS011;22291;52.250;21.228;2022-08-19T02:08:42;18.07;;;14.98;;
36253;SDS011;22291;52.250;21.228;2022-08-19T02:13:46;20.50;;;14.95;;
36253;SDS011;22291;52.250;21.228;2022-08-19T02:16:12;16.90;;;14.93;;
36253;SDS011;22291;52.250;21.228;2022-08-19T02:18:38;19.15;;;16.20;;
36253;SDS011;22291;52.250;21.228;2022-08-19T02:21:04;20.68;;;15.43;;
36253;SDS011;22291;52.250;21.228;2022-08-19T02:23:31;18.40;;;16.20;;
36253;SDS011;22291;52.250;21.228;2022-08-19T02:25:57;17.57;;;15.45;;
36253;SDS011;22291;52.250;21.228;2022-08-19T02:28:23;21.40;;;16.30;;
36253;SDS011;22291;52.250;21.228;2022-08-19T02:30:49;19.60;;;16.77;;
36253;SDS011;22291;52.250;21.228;2022-08-19T02:33:16;21.02;;;16.23;;
36253;SDS011;22291;52.250;21.228;2022-08-19T02:35:43;18.17;;;15.45;;
36253;SDS011;22291;52.250;21.228;2022-08-19T02:38:11;20.60;;;16.15;;
36253;SDS011;22291;52.250;21.228;2022-08-19T02:40:57;19.07;;;16.12;;
36253;SDS011;22291;52.250;21.228;2022-08-19T02:43:28;21.52;;;16.00;;
36253;SDS011;22291;52.250;21.228;2022-08-19T02:45:56;17.73;;;15.85;;
36253;SDS011;22291;52.250;21.228;2022-08-19T02:48:22;17.85;;;15.95;;
36253;SDS011;22291;52.250;21.228;2022-08-19T02:50:51;21.82;;;15.70;;
36253;SDS011;22291;52.250;21.228;2022-08-19T02:53:23;17.30;;;15.30;;
36253;SDS011;22291;52.250;21.228;2022-08-19T02:55:52;19.17;;;16.07;;
36253;SDS011;22291;52.250;21.228;2022-08-19T02:58:20;20.08;;;16.05;;
36253;SDS011;22291;52.250;21.228;2022-08-19T03:00:49;20.60;;;15.65;;
36253;SDS011;22291;52.250;21.228;2022-08-19T03:03:19;20.92;;;16.37;;
36253;SDS011;22291;52.250;21.228;2022-08-19T03:05:46;20.52;;;15.60;;
36253;SDS011;22291;52.250;21.228;2022-08-19T03:08:13;19.07;;;16.52;;
36253;SDS011;22291;52.250;21.228;2022-08-19T03:10:40;19.37;;;16.80;;
36253;SDS011;22291;52.250;21.228;2022-08-19T03:13:17;17.55;;;15.72;;
36253;SDS011;22291;52.250;21.228;2022-08-19T03:16:04;22.50;;;16.93;;
36253;SDS011;22291;52.250;21.228;2022-08-19T03:18:31;21.68;;;16.82;;
36253;SDS011;22291;52.250;21.228;2022-08-19T03:20:57;18.57;;;16.00;;
36253;SDS011;22291;52.250;21.228;2022-08-19T03:23:23;18.75;;;16.77;;
36253;SDS011;22291;52.250;21.228;2022-08-19T03:25:50;22.30;;;16.30;;
36253;SDS011;22291;52.250;21.228;2022-08-19T03:28:19;22.58;;;16.70;;
36253;SDS011;22291;52.250;21.228;2022-08-19T03:31:00;18.95;;;17.00;;
36253;SDS011;22291;52.250;21.228;2022-08-19T03:33:36;22.07;;;16.35;;
36253;SDS011;22291;52.250;21.228;2022-08-19T03:38:42;21.97;;;16.25;;
36253;SDS011;22291;52.250;21.228;2022-08-19T03:41:14;23.38;;;17.17;;
36253;SDS011;22291;52.250;21.228;2022-08-19T03:43:44;18.02;;;16.10;;
36253;SDS011;22291;52.250;21.228;2022-08-19T03:46:16;20.85;;;16.82;;
36253;SDS011;22291;52.250;21.228;2022-08-19T03:48:46;21.17;;;16.05;;
36253;SDS011;22291;52.250;21.228;2022-08-19T03:51:15;21.27;;;16.02;;
36253;SDS011;22291;52.250;21.228;2022-08-19T03:53:45;23.75;;;16.55;;
36253;SDS011;22291;52.250;21.228;2022-08-19T03:56:12;20.88;;;16.62;;
36253;SDS011;22291;52.250;21.228;2022-08-19T03:58:39;22.50;;;18.92;;
36253;SDS011;22291;52.250;21.228;2022-08-19T04:01:07;19.17;;;16.90;;
36253;SDS011;22291;52.250;21.228;2022-08-19T04:03:38;20.70;;;16.55;;
36253;SDS011;22291;52.250;21.228;2022-08-19T04:06:25;21.60;;;16.95;;
36253;SDS011;22291;52.250;21.228;2022-08-19T04:08:47;19.37;;;15.72;;
36253;SDS011;22291;52.250;21.228;2022-08-19T04:11:17;20.45;;;16.82;;
36253;SDS011;22291;52.250;21.228;2022-08-19T04:13:47;23.35;;;16.82;;
36253;SDS011;22291;52.250;21.228;2022-08-19T04:16:17;20.05;;;15.43;;
36253;SDS011;22291;52.250;21.228;2022-08-19T04:18:45;21.10;;;16.27;;
36253;SDS011;22291;52.250;21.228;2022-08-19T04:21:17;18.67;;;15.55;;
36253;SDS011;22291;52.250;21.228;2022-08-19T04:23:47;22.02;;;16.77;;
36253;SDS011;22291;52.250;21.228;2022-08-19T04:26:14;20.05;;;15.58;;
36253;SDS011;22291;52.250;21.228;2022-08-19T04:28:45;21.30;;;16.62;;
36253;SDS011;22291;52.250;21.228;2022-08-19T04:31:17;25.50;;;16.00;;
36253;SDS011;22291;52.250;21.228;2022-08-19T04:33:42;18.27;;;15.78;;
36253;SDS011;22291;52.250;21.228;2022-08-19T04:36:15;19.80;;;16.82;;
36253;SDS011;22291;52.250;21.228;2022-08-19T04:38:42;17.05;;;15.25;;
36253;SDS011;22291;52.250;21.228;2022-08-19T04:41:08;17.27;;;15.58;;
36253;SDS011;22291;52.250;21.228;2022-08-19T04:43:53;22.50;;;17.17;;
36253;SDS011;22291;52.250;21.228;2022-08-19T04:46:19;20.25;;;16.23;;
36253;SDS011;22291;52.250;21.228;2022-08-19T04:48:45;18.27;;;15.83;;
36253;SDS011;22291;52.250;21.228;2022-08-19T04:51:12;21.73;;;15.40;;
36253;SDS011;22291;52.250;21.228;2022-08-19T04:53:39;17.25;;;15.08;;
36253;SDS011;22291;52.250;21.228;2022-08-19T04:56:11;20.47;;;15.37;;
36253;SDS011;22291;52.250;21.228;2022-08-19T04:58:41;18.62;;;15.68;;
36253;SDS011;22291;52.250;21.228;2022-08-19T05:01:11;17.42;;;15.32;;
36253;SDS011;22291;52.250;21.228;2022-08-19T05:03:46;20.55;;;15.55;;
36253;SDS011;22291;52.250;21.228;2022-08-19T05:06:13;18.90;;;13.88;;
36253;SDS011;22291;52.250;21.228;2022-08-19T05:11:13;17.65;;;14.13;;
36253;SDS011;22291;52.250;21.228;2022-08-19T05:13:44;20.80;;;14.03;;
36253;SDS011;22291;52.250;21.228;2022-08-19T05:16:12;15.28;;;13.83;;
36253;SDS011;22291;52.250;21.228;2022-08-19T05:18:39;18.35;;;14.15;;
36253;SDS011;22291;52.250;21.228;2022-08-19T05:21:24;16.37;;;14.30;;
36253;SDS011;22291;52.250;21.228;2022-08-19T05:24:11;21.68;;;13.90;;
36253;SDS011;22291;52.250;21.228;2022-08-19T05:26:39;21.93;;;15.03;;
36253;SDS011;22291;52.250;21.228;2022-08-19T05:29:08;16.60;;;13.05;;
36253;SDS011;22291;52.250;21.228;2022-08-19T05:31:35;15.88;;;12.15;;
36253;SDS011;22291;52.250;21.228;2022-08-19T05:34:03;17.85;;;13.43;;
36253;SDS011;22291;52.250;21.228;2022-08-19T05:36:35;15.78;;;11.90;;
36253;SDS011;22291;52.250;21.228;2022-08-19T05:39:06;14.70;;;12.07;;
36253;SDS011;22291;52.250;21.228;2022-08-19T05:41:40;14.58;;;12.93;;
36253;SDS011;22291;52.250;21.228;2022-08-19T05:44:09;13.40;;;12.05;;
36253;SDS011;22291;52.250;21.228;2022-08-19T05:46:36;16.10;;;13.18;;
36253;SDS011;22291;52.250;21.228;2022-08-19T05:49:05;15.40;;;12.50;;
36253;SDS011;22291;52.250;21.228;2022-08-19T05:51:33;15.78;;;12.55;;
36253;SDS011;22291;52.250;21.228;2022-08-19T05:54:01;16.60;;;12.15;;
36253;SDS011;22291;52.250;21.228;2022-08-19T05:56:29;16.30;;;12.07;;
36253;SDS011;22291;52.250;21.228;2022-08-19T05:58:56;19.42;;;11.83;;
36253;SDS011;22291;52.250;21.228;2022-08-19T06:01:24;19.75;;;12.15;;
36253;SDS011;22291;52.250;21.228;2022-08-19T06:03:52;13.30;;;11.88;;
36253;SDS011;22291;52.250;21.228;2022-08-19T06:06:19;13.30;;;11.48;;
36253;SDS011;22291;52.250;21.228;2022-08-19T06:08:47;14.43;;;12.07;;
36253;SDS011;22291;52.250;21.228;2022-08-19T06:14:04;15.23;;;11.38;;
36253;SDS011;22291;52.250;21.228;2022-08-19T06:16:35;15.00;;;11.53;;
36253;SDS011;22291;52.250;21.228;2022-08-19T06:19:06;16.07;;;11.78;;
36253;SDS011;22291;52.250;21.228;2022-08-19T06:21:37;15.60;;;11.45;;
36253;SDS011;22291;52.250;21.228;2022-08-19T06:24:06;14.47;;;11.65;;
36253;SDS011;22291;52.250;21.228;2022-08-19T06:26:38;14.90;;;11.95;;
36253;SDS011;22291;52.250;21.228;2022-08-19T06:29:08;13.22;;;11.68;;
36253;SDS011;22291;52.250;21.228;2022-08-19T06:31:40;14.83;;;11.80;;
36253;SDS011;22291;52.250;21.228;2022-08-19T06:34:12;18.15;;;12.50;;
36253;SDS011;22291;52.250;21.228;2022-08-19T06:36:40;14.35;;;11.50;;
36253;SDS011;22291;52.250;21.228;2022-08-19T06:39:13;18.55;;;11.60;;
36253;SDS011;22291;52.250;21.228;2022-08-19T06:42:05;18.45;;;11.55;;
36253;SDS011;22291;52.250;21.228;2022-08-19T06:44:35;15.72;;;12.25;;
36253;SDS011;22291;52.250;21.228;2022-08-19T06:49:32;15.23;;;11.43;;
36253;SDS011;22291;52.250;21.228;2022-08-19T06:52:00;16.25;;;12.43;;
36253;SDS011;22291;52.250;21.228;2022-08-19T06:54:26;18.20;;;12.13;;
36253;SDS011;22291;52.250;21.228;2022-08-19T06:56:55;15.10;;;12.07;;
36253;SDS011;22291;52.250;21.228;2022-08-19T06:59:25;14.78;;;12.37;;
36253;SDS011;22291;52.250;21.228;2022-08-19T07:01:53;13.40;;;11.33;;
36253;SDS011;22291;52.250;21.228;2022-08-19T07:04:23;17.85;;;11.65;;
36253;SDS011;22291;52.250;21.228;2022-08-19T07:07:02;16.70;;;10.82;;
36253;SDS011;22291;52.250;21.228;2022-08-19T07:09:28;14.55;;;12.13;;
36253;SDS011;22291;52.250;21.228;2022-08-19T07:11:55;14.87;;;11.25;;
36253;SDS011;22291;52.250;21.228;2022-08-19T07:14:23;17.55;;;11.20;;
36253;SDS011;22291;52.250;21.228;2022-08-19T07:16:53;15.58;;;11.10;;
36253;SDS011;22291;52.250;21.228;2022-08-19T07:19:23;19.10;;;11.70;;
36253;SDS011;22291;52.250;21.228;2022-08-19T07:21:53;14.53;;;10.65;;
36253;SDS011;22291;52.250;21.228;2022-08-19T07:24:24;16.50;;;11.45;;
36253;SDS011;22291;52.250;21.228;2022-08-19T07:26:53;15.28;;;10.68;;
36253;SDS011;22291;52.250;21.228;2022-08-19T07:29:26;14.98;;;10.60;;
36253;SDS011;22291;52.250;21.228;2022-08-19T07:31:55;15.80;;;10.28;;
36253;SDS011;22291;52.250;21.228;2022-08-19T07:34:24;13.93;;;10.43;;
36253;SDS011;22291;52.250;21.228;2022-08-19T07:36:53;12.88;;;10.82;;
36253;SDS011;22291;52.250;21.228;2022-08-19T07:39:23;14.28;;;10.30;;
36253;SDS011;22291;52.250;21.228;2022-08-19T07:41:52;19.15;;;11.10;;
36253;SDS011;22291;52.250;21.228;2022-08-19T07:44:20;15.15;;;10.68;;
36253;SDS011;22291;52.250;21.228;2022-08-19T07:46:49;13.95;;;11.03;;
36253;SDS011;22291;52.250;21.228;2022-08-19T07:49:20;15.25;;;10.55;;
36253;SDS011;22291;52.250;21.228;2022-08-19T07:51:49;19.70;;;10.53;;
36253;SDS011;22291;52.250;21.228;2022-08-19T07:54:19;14.13;;;9.95;;
36253;SDS011;22291;52.250;21.228;2022-08-19T07:56:47;14.70;;;10.82;;
36253;SDS011;22291;52.250;21.228;2022-08-19T07:59:16;14.15;;;10.10;;
36253;SDS011;22291;52.250;21.228;2022-08-19T08:04:11;22.37;;;10.85;;
36253;SDS011;22291;52.250;21.228;2022-08-19T08:06:56;15.63;;;10.18;;
36253;SDS011;22291;52.250;21.228;2022-08-19T08:09:41;12.28;;;10.23;;
36253;SDS011;22291;52.250;21.228;2022-08-19T08:12:11;15.88;;;11.18;;
36253;SDS011;22291;52.250;21.228;2022-08-19T08:14:45;15.00;;;10.13;;
36253;SDS011;22291;52.250;21.228;2022-08-19T08:17:16;12.95;;;10.20;;
36253;SDS011;22291;52.250;21.228;2022-08-19T08:19:46;16.65;;;9.93;;
36253;SDS011;22291;52.250;21.228;2022-08-19T08:22:15;15.70;;;10.00;;
36253;SDS011;22291;52.250;21.228;2022-08-19T08:25:08;15.20;;;12.35;;
36253;SDS011;22291;52.250;21.228;2022-08-19T08:27:41;15.15;;;9.93;;
36253;SDS011;22291;52.250;21.228;2022-08-19T08:32:40;16.15;;;9.83;;
36253;SDS011;22291;52.250;21.228;2022-08-19T08:35:08;16.82;;;10.08;;
36253;SDS011;22291;52.250;21.228;2022-08-19T08:37:38;16.67;;;11.15;;
36253;SDS011;22291;52.250;21.228;2022-08-19T08:40:05;12.35;;;9.78;;
36253;SDS011;22291;52.250;21.228;2022-08-19T08:42:36;11.75;;;10.45;;
36253;SDS011;22291;52.250;21.228;2022-08-19T08:45:16;14.20;;;10.40;;
36253;SDS011;22291;52.250;21.228;2022-08-19T08:47:43;11.55;;;9.98;;
36253;SDS011;22291;52.250;21.228;2022-08-19T08:50:18;15.35;;;10.43;;
36253;SDS011;22291;52.250;21.228;2022-08-19T08:52:55;13.43;;;10.18;;
36253;SDS011;22291;52.250;21.228;2022-08-19T08:57:55;16.12;;;10.15;;
36253;SDS011;22291;52.250;21.228;2022-08-19T09:00:34;21.15;;;10.72;;
36253;SDS011;22291;52.250;21.228;2022-08-19T09:03:06;10.48;;;9.35;;
36253;SDS011;22291;52.250;21.228;2022-08-19T09:05:47;14.43;;;9.05;;
36253;SDS011;22291;52.250;21.228;2022-08-19T09:14:19;15.83;;;10.35;;
36253;SDS011;22291;52.250;21.228;2022-08-19T09:16:59;17.10;;;9.20;;
36253;SDS011;22291;52.250;21.228;2022-08-19T09:19:28;15.75;;;10.98;;
36253;SDS011;22291;52.250;21.228;2022-08-19T09:21:54;18.07;;;9.28;;
36253;SDS011;22291;52.250;21.228;2022-08-19T09:24:20;15.50;;;9.55;;
36253;SDS011;22291;52.250;21.228;2022-08-19T09:26:47;11.43;;;9.13;;
36253;SDS011;22291;52.250;21.228;2022-08-19T09:29:13;13.78;;;8.90;;
36253;SDS011;22291;52.250;21.228;2022-08-19T09:31:40;15.40;;;9.08;;
36253;SDS011;22291;52.250;21.228;2022-08-19T09:34:06;10.93;;;8.80;;
36253;SDS011;22291;52.250;21.228;2022-08-19T09:36:33;11.53;;;8.83;;
36253;SDS011;22291;52.250;21.228;2022-08-19T09:39:03;13.80;;;8.63;;
36253;SDS011;22291;52.250;21.228;2022-08-19T09:41:32;12.30;;;8.53;;
36253;SDS011;22291;52.250;21.228;2022-08-19T09:43:58;17.90;;;9.45;;
36253;SDS011;22291;52.250;21.228;2022-08-19T09:46:25;14.93;;;9.23;;
36253;SDS011;22291;52.250;21.228;2022-08-19T09:48:54;16.35;;;8.88;;
